Atkinson, Illinois
Current Conditions -  °F | °C
As of 12:52 PM on Friday 21 Nov 2014 (Local Time) from KMLI Reporting Station
Clear Clear  
Wind Chill: -4°   Ceiling: Unl
Heat Index:   Visibility: 10mi
Dew Point: -14°   Wind: 14mph
Humidity: 32%   Direction: 150°SSE
Pressure: 30.32"   Gusts: NA
Location:  41.42°N, 90.02°W
Report Text: KMLI 211852Z 15012KT 10SM CLR 01/M14 A3032 RMK AO2 SLP277 T00111139
Loading
Personal Weather Stations






























Interactive Weather Map New forecast layout! Learn more

10-Day Weather Forecast

Advertisements
Track Severe Weather on mobile